createdAt,value
2022-09-12T00:01:44.560Z,18.18
2022-09-12T00:04:14.926Z,18.15
2022-09-12T00:06:45.063Z,18.15
2022-09-12T00:09:16.856Z,18.18
2022-09-12T00:11:48.791Z,18.08
2022-09-12T00:14:20.692Z,18.16
2022-09-12T00:16:51.003Z,18.18
2022-09-12T00:19:21.030Z,18.10
2022-09-12T00:21:50.863Z,18.10
2022-09-12T00:24:21.571Z,18.26
2022-09-12T00:26:51.925Z,18.39
2022-09-12T00:29:23.586Z,18.45
2022-09-12T00:31:53.820Z,18.19
2022-09-12T00:34:24.949Z,17.94
2022-09-12T00:36:55.431Z,17.94
2022-09-12T00:39:26.436Z,18.02
2022-09-12T00:41:56.646Z,18.10
2022-09-12T00:44:26.582Z,18.05
2022-09-12T00:47:02.553Z,18.05
2022-09-12T00:49:40.456Z,17.82
2022-09-12T00:52:22.012Z,17.78
2022-09-12T00:54:55.640Z,17.75
2022-09-12T00:57:29.804Z,17.75
2022-09-12T01:00:17.854Z,17.82
2022-09-12T01:02:56.489Z,17.77
2022-09-12T01:05:27.413Z,17.79
2022-09-12T01:07:58.611Z,17.89
2022-09-12T01:10:29.529Z,17.89
2022-09-12T01:13:00.481Z,17.91
2022-09-12T01:15:30.789Z,17.97
2022-09-12T01:18:32.511Z,17.99
2022-09-12T01:21:06.177Z,18.04
2022-09-12T01:23:39.249Z,18.06
2022-09-12T01:26:46.052Z,18.08
2022-09-12T01:29:34.491Z,17.95
2022-09-12T01:32:38.745Z,17.75
2022-09-12T01:35:24.116Z,17.74
2022-09-12T01:38:13.900Z,17.75
2022-09-12T01:41:31.485Z,17.68
2022-09-12T01:44:25.355Z,17.67
2022-09-12T01:47:11.411Z,17.61
2022-09-12T01:50:04.714Z,17.48
2022-09-12T01:52:43.380Z,17.43
2022-09-12T01:55:21.452Z,17.44
2022-09-12T01:58:06.909Z,17.44
2022-09-12T02:00:47.362Z,17.51
2022-09-12T02:03:22.151Z,17.54
2022-09-12T02:06:16.312Z,17.58
2022-09-12T02:08:55.301Z,17.63
2022-09-12T02:11:26.375Z,17.71
2022-09-12T02:14:04.036Z,17.74
2022-09-12T02:16:41.187Z,17.75
2022-09-12T02:19:24.921Z,17.73
2022-09-12T02:22:01.502Z,17.71
2022-09-12T02:24:40.647Z,17.71
2022-09-12T02:27:43.946Z,17.66
2022-09-12T02:30:18.871Z,17.70
2022-09-12T02:33:03.041Z,17.74
2022-09-12T02:35:50.923Z,17.75
2022-09-12T02:38:46.815Z,17.71
2022-09-12T02:41:21.449Z,17.61
2022-09-12T02:43:54.111Z,17.63
2022-09-12T02:46:40.723Z,17.61
2022-09-12T02:49:11.528Z,17.48
2022-09-12T02:51:42.325Z,17.50
2022-09-12T02:54:14.182Z,17.48
2022-09-12T02:56:45.961Z,17.48
2022-09-12T02:59:20.784Z,17.46
2022-09-12T03:02:00.289Z,17.39
2022-09-12T03:05:00.885Z,17.31
2022-09-12T03:08:07.429Z,17.39
2022-09-12T03:11:23.230Z,17.41
2022-09-12T03:14:29.608Z,17.40
2022-09-12T03:17:20.739Z,17.37
2022-09-12T03:20:23.086Z,17.30
2022-09-12T03:23:01.695Z,17.23
2022-09-12T03:25:37.989Z,17.18
2022-09-12T03:28:17.058Z,17.13
2022-09-12T03:30:49.594Z,17.08
2022-09-12T03:33:22.663Z,17.10
2022-09-12T03:35:54.181Z,17.12
2022-09-12T03:38:24.816Z,17.18
2022-09-12T03:40:55.092Z,17.23
2022-09-12T03:43:25.144Z,17.22
2022-09-12T03:45:55.043Z,17.10
2022-09-12T03:48:25.302Z,17.05
2022-09-12T03:50:55.592Z,17.08
2022-09-12T03:53:25.661Z,17.10
2022-09-12T03:55:55.465Z,17.09
2022-09-12T03:58:26.505Z,17.10
2022-09-12T04:00:57.086Z,16.99
2022-09-12T04:03:27.462Z,16.92
2022-09-12T04:05:59.564Z,16.88
2022-09-12T04:08:30.311Z,16.88
2022-09-12T04:11:08.738Z,16.89
2022-09-12T04:13:40.235Z,16.89
2022-09-12T04:16:11.171Z,16.90
2022-09-12T04:18:42.251Z,16.86
2022-09-12T04:21:17.018Z,16.82
2022-09-12T04:23:47.482Z,16.78
2022-09-12T04:26:19.085Z,16.76
2022-09-12T04:28:50.956Z,16.76
2022-09-12T04:31:24.861Z,16.75
2022-09-12T04:34:02.534Z,16.71
2022-09-12T04:36:33.220Z,16.71
2022-09-12T04:39:04.712Z,16.71
2022-09-12T04:41:38.619Z,16.68
2022-09-12T04:44:13.560Z,16.73
2022-09-12T04:46:46.616Z,16.73
2022-09-12T04:49:18.591Z,16.78
2022-09-12T04:51:49.199Z,16.78
2022-09-12T04:54:21.888Z,16.65
2022-09-12T04:56:52.052Z,16.67
2022-09-12T04:59:23.294Z,16.64
2022-09-12T05:01:53.858Z,16.57
2022-09-12T05:04:24.581Z,16.49
2022-09-12T05:06:54.394Z,16.42
2022-09-12T05:09:24.291Z,16.44
2022-09-12T05:12:09.710Z,16.49
2022-09-12T05:14:40.277Z,16.59
2022-09-12T05:17:10.582Z,16.65
2022-09-12T05:19:40.528Z,16.64
2022-09-12T05:22:11.851Z,16.54
2022-09-12T05:24:48.539Z,16.38
2022-09-12T05:27:21.357Z,16.34
2022-09-12T05:29:51.924Z,16.31
2022-09-12T05:32:22.039Z,16.25
2022-09-12T05:34:52.154Z,16.17
2022-09-12T05:37:22.061Z,16.11
2022-09-12T05:39:52.551Z,16.04
2022-09-12T05:42:22.896Z,16.07
2022-09-12T05:44:53.126Z,16.04
2022-09-12T05:47:23.088Z,16.01
2022-09-12T05:49:53.707Z,16.06
2022-09-12T05:52:23.648Z,16.10
2022-09-12T05:54:53.921Z,16.17
2022-09-12T05:57:24.384Z,16.21
2022-09-12T05:59:54.195Z,16.21
2022-09-12T06:02:24.297Z,16.28
2022-09-12T06:04:54.155Z,16.32
2022-09-12T06:07:24.534Z,16.31
2022-09-12T06:09:54.758Z,16.30
2022-09-12T06:12:24.982Z,16.22
2022-09-12T06:14:55.323Z,16.22
2022-09-12T06:17:25.100Z,16.13
2022-09-12T06:19:55.333Z,16.13
2022-09-12T06:22:25.311Z,16.18
2022-09-12T06:24:58.001Z,16.18
2022-09-12T06:27:28.280Z,16.20
2022-09-12T06:29:58.400Z,16.21
2022-09-12T06:32:31.411Z,16.21
2022-09-12T06:35:01.712Z,16.24
2022-09-12T06:37:34.782Z,16.27
2022-09-12T06:40:05.618Z,16.31
2022-09-12T06:42:35.885Z,16.32
2022-09-12T06:45:06.509Z,16.35
2022-09-12T06:47:36.674Z,16.35
2022-09-12T06:50:07.203Z,16.31
2022-09-12T06:52:37.101Z,16.25
2022-09-12T06:55:07.393Z,16.18
2022-09-12T06:57:40.077Z,16.25
2022-09-12T07:00:31.444Z,16.31
2022-09-12T07:03:02.879Z,16.32
2022-09-12T07:05:35.238Z,16.35
2022-09-12T07:08:05.337Z,16.31
2022-09-12T07:10:35.979Z,16.34
2022-09-12T07:13:06.003Z,16.32
2022-09-12T07:15:37.930Z,16.28
2022-09-12T07:18:08.861Z,16.24
2022-09-12T07:20:39.608Z,16.24
2022-09-12T07:23:09.573Z,16.27
2022-09-12T07:25:39.458Z,16.27
2022-09-12T07:28:09.304Z,16.25
2022-09-12T07:30:39.716Z,16.24
2022-09-12T07:33:10.133Z,16.18
2022-09-12T07:35:40.419Z,16.16
2022-09-12T07:38:10.538Z,16.17
2022-09-12T07:40:40.590Z,16.21
2022-09-12T07:43:10.660Z,16.13
2022-09-12T07:45:43.097Z,16.07
2022-09-12T07:48:14.045Z,15.97
2022-09-12T07:50:45.214Z,15.96
2022-09-12T07:53:15.607Z,15.89
2022-09-12T07:55:45.413Z,15.85
2022-09-12T07:58:15.836Z,15.85
2022-09-12T08:00:47.147Z,15.82
2022-09-12T08:03:17.559Z,15.86
2022-09-12T08:05:47.581Z,15.90
2022-09-12T08:08:17.920Z,15.89
2022-09-12T08:10:48.663Z,15.89
2022-09-12T08:13:18.507Z,15.87
2022-09-12T08:15:48.332Z,15.85
2022-09-12T08:18:18.199Z,15.82
2022-09-12T08:20:49.058Z,15.79
2022-09-12T08:23:19.199Z,15.78
2022-09-12T08:25:49.325Z,15.66
2022-09-12T08:28:19.369Z,15.65
2022-09-12T08:30:49.734Z,15.66
2022-09-12T08:33:20.128Z,15.66
2022-09-12T08:35:50.477Z,15.65
2022-09-12T08:38:20.987Z,15.63
2022-09-12T08:41:11.744Z,15.60
2022-09-12T08:43:54.642Z,15.60
2022-09-12T08:46:58.406Z,15.53
2022-09-12T08:49:43.031Z,15.55
2022-09-12T08:52:43.130Z,15.60
2022-09-12T08:55:36.469Z,15.69
2022-09-12T08:58:22.361Z,15.80
2022-09-12T09:01:16.027Z,15.80
2022-09-12T09:03:52.251Z,15.76
2022-09-12T09:06:38.132Z,15.76
2022-09-12T09:09:40.813Z,15.72
2022-09-12T09:12:39.111Z,15.67
2022-09-12T09:15:24.960Z,15.73
2022-09-12T09:18:03.023Z,15.78
2022-09-12T09:20:58.365Z,15.82
2022-09-12T09:23:44.098Z,15.76
2022-09-12T09:26:19.527Z,15.63
2022-09-12T09:28:54.851Z,15.52
2022-09-12T09:31:28.100Z,15.52
2022-09-12T09:33:58.724Z,15.55
2022-09-12T09:36:47.007Z,15.53
2022-09-12T09:39:23.441Z,15.52
2022-09-12T09:42:11.675Z,15.50
2022-09-12T09:44:42.374Z,15.56
2022-09-12T09:47:13.938Z,15.59
2022-09-12T09:49:44.794Z,15.60
2022-09-12T09:52:22.481Z,15.59
2022-09-12T09:54:58.687Z,15.53
2022-09-12T09:57:38.689Z,15.59
2022-09-12T10:00:33.777Z,15.66
2022-09-12T10:03:15.679Z,15.73
2022-09-12T10:05:55.099Z,15.83
2022-09-12T10:08:31.190Z,15.93
2022-09-12T10:11:19.260Z,15.99
2022-09-12T10:14:02.612Z,16.04
2022-09-12T10:16:55.330Z,16.14
2022-09-12T10:19:40.778Z,16.24
2022-09-12T10:22:21.501Z,16.32
2022-09-12T10:24:58.585Z,16.37
2022-09-12T10:27:35.463Z,16.32
2022-09-12T10:30:18.369Z,16.40
2022-09-12T10:32:53.039Z,16.45
2022-09-12T10:35:44.253Z,16.57
2022-09-12T10:38:25.135Z,16.49
2022-09-12T10:41:04.794Z,16.59
2022-09-12T10:43:42.024Z,16.68
2022-09-12T10:46:18.508Z,16.69
2022-09-12T10:48:54.060Z,16.75
2022-09-12T10:51:27.082Z,16.88
2022-09-12T10:54:01.620Z,17.03
2022-09-12T10:56:40.358Z,17.16
2022-09-12T10:59:28.560Z,17.09
2022-09-12T11:02:29.958Z,17.20
2022-09-12T11:05:06.386Z,17.36
2022-09-12T11:07:49.003Z,17.54
2022-09-12T11:10:25.296Z,17.54
2022-09-12T11:13:01.285Z,17.51
2022-09-12T11:16:01.787Z,17.74
2022-09-12T11:19:04.544Z,18.02
2022-09-12T11:21:40.870Z,18.36
2022-09-12T11:24:45.741Z,18.38
2022-09-12T11:27:57.383Z,18.18
2022-09-12T11:30:28.489Z,18.06
2022-09-12T11:33:26.043Z,18.28
2022-09-12T11:35:58.811Z,18.68
2022-09-12T11:38:59.996Z,19.38
2022-09-12T11:41:37.969Z,19.41
2022-09-12T11:44:17.628Z,19.70
2022-09-12T11:46:51.730Z,19.69
2022-09-12T11:49:35.903Z,19.25
2022-09-12T11:52:42.121Z,18.97
2022-09-12T11:55:22.173Z,18.74
2022-09-12T11:58:01.523Z,18.97
2022-09-12T12:00:58.199Z,19.48
2022-09-12T12:03:48.264Z,19.86
2022-09-12T12:06:47.025Z,19.96
2022-09-12T12:09:18.962Z,19.59
2022-09-12T12:11:57.314Z,19.31
2022-09-12T12:14:39.529Z,19.55
2022-09-12T12:17:21.526Z,19.87
2022-09-12T12:20:08.805Z,20.13
2022-09-12T12:22:39.754Z,20.10
2022-09-12T12:25:29.889Z,19.97
2022-09-12T12:28:07.454Z,19.92
2022-09-12T12:30:38.025Z,19.90
2022-09-12T12:33:16.572Z,20.06
2022-09-12T12:36:02.914Z,20.23
2022-09-12T12:38:32.747Z,20.67
2022-09-12T12:41:21.275Z,20.94
2022-09-12T12:43:57.690Z,21.05
2022-09-12T12:46:29.166Z,21.16
2022-09-12T12:49:28.143Z,20.86
2022-09-12T12:52:04.890Z,20.99
2022-09-12T12:54:37.229Z,21.16
2022-09-12T12:57:31.482Z,21.74
2022-09-12T13:00:10.444Z,22.05
2022-09-12T13:02:51.586Z,22.41
2022-09-12T13:05:25.700Z,22.02
2022-09-12T13:08:11.460Z,21.98
2022-09-12T13:10:52.610Z,22.32
2022-09-12T13:13:47.544Z,22.73
2022-09-12T13:16:40.407Z,23.22
2022-09-12T13:19:18.668Z,22.97
2022-09-12T13:22:01.181Z,22.80
2022-09-12T13:24:32.411Z,23.01
2022-09-12T13:27:03.471Z,23.08
2022-09-12T13:29:33.731Z,22.86
2022-09-12T13:32:04.838Z,22.56
2022-09-12T13:35:03.833Z,22.19
2022-09-12T13:37:56.604Z,22.36
2022-09-12T13:40:37.633Z,23.07
2022-09-12T13:43:16.476Z,23.62
2022-09-12T13:45:48.531Z,23.59
2022-09-12T13:48:26.794Z,23.07
2022-09-12T13:51:03.140Z,22.36
2022-09-12T13:53:47.309Z,22.00
2022-09-12T13:56:20.085Z,21.85
2022-09-12T13:58:58.728Z,21.84
2022-09-12T14:01:42.220Z,21.70
2022-09-12T14:04:44.644Z,22.25
2022-09-12T14:07:22.522Z,22.89
2022-09-12T14:10:01.653Z,23.34
2022-09-12T14:12:45.173Z,23.47
2022-09-12T14:15:25.730Z,23.07
2022-09-12T14:18:01.884Z,22.93
2022-09-12T14:20:34.388Z,23.63
2022-09-12T14:23:17.166Z,23.37
2022-09-12T14:25:49.216Z,23.37
2022-09-12T14:28:23.664Z,23.73
2022-09-12T14:31:28.009Z,23.59
2022-09-12T14:34:19.561Z,22.97
2022-09-12T14:36:56.375Z,22.86
2022-09-12T14:39:42.892Z,22.99
2022-09-12T14:42:23.640Z,22.99
2022-09-12T14:45:24.322Z,23.31
2022-09-12T14:47:55.340Z,23.61
2022-09-12T14:50:28.954Z,23.88
2022-09-12T14:53:09.556Z,24.37
2022-09-12T14:55:55.404Z,24.51
2022-09-12T14:58:27.961Z,24.17
2022-09-12T15:01:24.771Z,24.03
2022-09-12T15:03:57.576Z,23.83
2022-09-12T15:06:33.774Z,23.72
2022-09-12T15:09:10.312Z,23.52
2022-09-12T15:11:40.978Z,22.97
2022-09-12T15:14:18.463Z,22.62
2022-09-12T15:16:48.563Z,22.66
2022-09-12T15:19:18.900Z,22.73
2022-09-12T15:21:49.544Z,22.74
2022-09-12T15:24:19.840Z,22.67
2022-09-12T15:26:49.673Z,22.57
2022-09-12T15:29:19.639Z,22.55
2022-09-12T15:31:52.610Z,22.22
2022-09-12T15:34:23.507Z,21.91
2022-09-12T15:36:53.648Z,21.78
2022-09-12T15:39:23.642Z,21.61
2022-09-12T15:41:53.707Z,21.54
2022-09-12T15:44:24.795Z,21.51
2022-09-12T15:46:55.404Z,21.50
2022-09-12T15:49:25.689Z,21.47
2022-09-12T15:51:55.526Z,21.44
2022-09-12T15:54:25.386Z,21.39
2022-09-12T15:56:56.250Z,21.25
2022-09-12T15:59:26.381Z,20.89
2022-09-12T16:01:56.810Z,20.78
2022-09-12T16:04:28.608Z,20.72
2022-09-12T16:06:59.321Z,20.69
2022-09-12T16:09:29.644Z,20.71
2022-09-12T16:11:59.902Z,20.69
2022-09-12T16:14:29.988Z,20.68
2022-09-12T16:16:59.890Z,20.63
2022-09-12T16:19:29.852Z,20.47
2022-09-12T16:21:59.928Z,20.38
2022-09-12T16:24:30.057Z,20.45
2022-09-12T16:27:01.275Z,20.45
2022-09-12T16:29:31.901Z,20.55
2022-09-12T16:32:02.033Z,20.55
2022-09-12T16:34:31.838Z,20.51
2022-09-12T16:37:02.987Z,20.54
2022-09-12T16:39:35.606Z,20.58
2022-09-12T16:42:06.165Z,20.61
2022-09-12T16:44:36.490Z,20.58
2022-09-12T16:47:06.510Z,20.51
2022-09-12T16:49:36.729Z,20.45
2022-09-12T16:52:07.222Z,20.43
2022-09-12T16:54:37.309Z,20.58
2022-09-12T16:57:07.753Z,20.65
2022-09-12T16:59:37.853Z,20.71
2022-09-12T17:02:08.827Z,20.72
2022-09-12T17:04:39.477Z,20.76
2022-09-12T17:07:10.163Z,20.72
2022-09-12T17:09:40.360Z,20.75
2022-09-12T17:12:10.501Z,20.79
2022-09-12T17:14:41.100Z,20.81
2022-09-12T17:17:11.792Z,20.74
2022-09-12T17:19:41.696Z,20.78
2022-09-12T17:22:12.867Z,20.88
2022-09-12T17:24:43.181Z,20.86
2022-09-12T17:27:13.421Z,20.86
2022-09-12T17:29:43.583Z,20.92
2022-09-12T17:32:17.328Z,21.05
2022-09-12T17:34:47.741Z,21.12
2022-09-12T17:37:18.920Z,21.18
2022-09-12T17:39:49.375Z,21.32
2022-09-12T17:42:20.016Z,21.43
2022-09-12T17:44:50.676Z,21.71
2022-09-12T17:47:20.622Z,21.78
2022-09-12T17:49:51.852Z,21.87
2022-09-12T17:52:22.927Z,21.68
2022-09-12T17:54:53.001Z,21.58
2022-09-12T17:57:22.944Z,21.65
2022-09-12T17:59:52.983Z,21.88
2022-09-12T18:02:23.508Z,21.91
2022-09-12T18:04:53.860Z,21.90
2022-09-12T18:07:25.033Z,21.67
2022-09-12T18:09:56.344Z,21.51
2022-09-12T18:12:28.204Z,21.44
2022-09-12T18:14:58.764Z,21.29
2022-09-12T18:17:28.783Z,21.19
2022-09-12T18:19:58.668Z,21.20
2022-09-12T18:22:28.601Z,21.16
2022-09-12T18:24:58.521Z,21.13
2022-09-12T18:27:28.911Z,21.06
2022-09-12T18:30:19.437Z,20.96
2022-09-12T18:32:49.762Z,20.96
2022-09-12T18:35:19.964Z,20.95
2022-09-12T18:37:50.319Z,20.89
2022-09-12T18:40:20.509Z,20.89
2022-09-12T18:42:50.874Z,21.10
2022-09-12T18:45:21.381Z,21.64
2022-09-12T18:47:51.324Z,22.43
2022-09-12T18:50:21.229Z,22.60
2022-09-12T18:52:57.870Z,22.32
2022-09-12T18:55:30.134Z,22.29
2022-09-12T18:58:00.769Z,22.22
2022-09-12T19:00:30.862Z,22.19
2022-09-12T19:03:01.611Z,22.22
2022-09-12T19:05:32.008Z,22.01
2022-09-12T19:08:02.823Z,21.81
2022-09-12T19:10:32.727Z,21.67
2022-09-12T19:13:04.514Z,21.57
2022-09-12T19:15:35.048Z,21.40
2022-09-12T19:18:05.623Z,21.43
2022-09-12T19:20:38.614Z,21.54
2022-09-12T19:23:08.665Z,21.51
2022-09-12T19:25:38.891Z,21.56
2022-09-12T19:28:09.642Z,21.54
2022-09-12T19:30:42.999Z,21.54
2022-09-12T19:33:15.330Z,21.47
2022-09-12T19:35:45.649Z,21.47
2022-09-12T19:38:16.621Z,21.40
2022-09-12T19:40:48.039Z,21.46
2022-09-12T19:43:18.105Z,21.49
2022-09-12T19:45:51.001Z,21.58
2022-09-12T19:48:22.537Z,21.68
2022-09-12T19:50:53.182Z,21.68
2022-09-12T19:53:23.039Z,21.85
2022-09-12T19:55:53.002Z,21.95
2022-09-12T19:58:23.339Z,22.16
2022-09-12T20:00:54.082Z,22.15
2022-09-12T20:03:25.422Z,22.24
2022-09-12T20:05:55.536Z,22.31
2022-09-12T20:08:25.441Z,22.04
2022-09-12T20:10:58.598Z,21.78
2022-09-12T20:13:29.760Z,21.63
2022-09-12T20:16:11.409Z,21.60
2022-09-12T20:18:41.616Z,21.60
2022-09-12T20:21:17.953Z,21.60
2022-09-12T20:23:49.661Z,21.50
2022-09-12T20:26:21.444Z,21.49
2022-09-12T20:28:53.016Z,21.47
2022-09-12T20:31:24.163Z,21.39
2022-09-12T20:33:54.690Z,21.25
2022-09-12T20:36:25.352Z,21.19
2022-09-12T20:39:04.242Z,21.03
2022-09-12T20:41:37.246Z,20.92
2022-09-12T20:44:07.615Z,20.76
2022-09-12T20:46:38.258Z,20.63
2022-09-12T20:49:10.149Z,20.47
2022-09-12T20:51:40.532Z,20.38
2022-09-12T20:54:11.686Z,20.30
2022-09-12T20:56:42.179Z,20.21
2022-09-12T20:59:14.230Z,20.12
2022-09-12T21:01:45.276Z,20.01
2022-09-12T21:04:15.630Z,19.86
2022-09-12T21:06:45.947Z,19.75
2022-09-12T21:09:16.442Z,19.56
2022-09-12T21:11:46.408Z,19.45
2022-09-12T21:14:16.349Z,19.31
2022-09-12T21:16:47.422Z,19.18
2022-09-12T21:19:18.337Z,19.01
2022-09-12T21:21:48.861Z,18.87
2022-09-12T21:24:18.895Z,18.73
2022-09-12T21:26:48.851Z,18.56
2022-09-12T21:29:19.011Z,18.47
2022-09-12T21:31:48.932Z,18.36
2022-09-12T21:34:20.284Z,18.28
2022-09-12T21:36:50.318Z,18.19
2022-09-12T21:39:20.223Z,18.06
2022-09-12T21:41:51.131Z,18.01
2022-09-12T21:44:21.772Z,17.95
2022-09-12T21:46:51.711Z,17.84
2022-09-12T21:49:21.743Z,17.82
2022-09-12T21:51:52.608Z,17.74
2022-09-12T21:54:22.751Z,17.64
2022-09-12T21:56:53.025Z,17.64
2022-09-12T21:59:23.949Z,17.67
2022-09-12T22:01:55.949Z,17.67
2022-09-12T22:04:27.538Z,17.64
2022-09-12T22:06:58.742Z,17.64
2022-09-12T22:09:29.530Z,17.60
2022-09-12T22:11:59.520Z,17.55
2022-09-12T22:14:29.780Z,17.47
2022-09-12T22:17:00.058Z,17.44
2022-09-12T22:19:30.754Z,17.39
2022-09-12T22:22:19.211Z,17.24
2022-09-12T22:24:49.638Z,17.18
2022-09-12T22:27:20.112Z,17.16
2022-09-12T22:29:54.603Z,17.06
2022-09-12T22:32:25.150Z,17.00
2022-09-12T22:34:55.547Z,16.93
2022-09-12T22:37:25.628Z,16.89
2022-09-12T22:39:56.046Z,16.83
2022-09-12T22:42:26.442Z,16.79
2022-09-12T22:44:56.876Z,16.78
2022-09-12T22:47:28.796Z,16.75
2022-09-12T22:49:58.947Z,16.71
2022-09-12T22:52:29.310Z,16.67
2022-09-12T22:55:00.305Z,16.67
2022-09-12T22:57:30.750Z,16.57
2022-09-12T23:00:00.692Z,16.49
2022-09-12T23:02:30.941Z,16.51
2022-09-12T23:05:01.877Z,16.48
2022-09-12T23:07:32.711Z,16.42
2022-09-12T23:10:02.910Z,16.34
2022-09-12T23:12:33.719Z,16.34
2022-09-12T23:15:03.859Z,16.37
2022-09-12T23:17:35.174Z,16.37
2022-09-12T23:20:06.600Z,16.30
2022-09-12T23:22:38.513Z,16.24
2022-09-12T23:25:09.211Z,16.22
2022-09-12T23:27:41.263Z,16.20
2022-09-12T23:30:13.358Z,16.18
2022-09-12T23:32:43.609Z,16.14
2022-09-12T23:35:14.295Z,16.07
2022-09-12T23:37:44.801Z,16.03
2022-09-12T23:40:15.407Z,15.96
2022-09-12T23:42:45.477Z,15.89
2022-09-12T23:45:15.547Z,15.89
2022-09-12T23:47:45.440Z,15.90
2022-09-12T23:50:15.705Z,15.82
2022-09-12T23:52:45.671Z,15.76
2022-09-12T23:55:15.939Z,15.73
2022-09-12T23:57:45.870Z,15.66
